Time;durP1;ratioP1;P1;durP2;ratioP2;P2;SDS_P1;SDS_P2;PMS_P1;PMS_P2;Temp;Humidity;BMP_temperature;BMP_pressure;BME280_temperature;BME280_humidity;BME280_pressure;Samples;Min_cycle;Max_cycle;Signal;HPM_P1;HPM_P2
2023/03/11 00:00:53;;;;;;;;;;;25.80;99.90;;;;;;5045944;28;19915;-67
2023/03/11 00:03:23;;;;;;;;;;;26.00;99.90;;;;;;5045440;28;19916;-70
2023/03/11 00:05:51;;;;;;;;;;;26.00;99.90;;;;;;5044338;28;19920;-74
2023/03/11 00:08:20;;;;;;;;;;;26.10;99.90;;;;;;5045049;28;20254;-71
2023/03/11 00:10:48;;;;;;;;;;;26.20;99.70;;;;;;5045981;28;19909;-73
2023/03/11 00:13:15;;;;;;;;;;;26.30;99.90;;;;;;5045885;28;19920;-76
2023/03/11 00:15:43;;;;;;;;;;;26.40;99.70;;;;;;5044436;28;19908;-69
2023/03/11 00:18:10;;;;;;;;;;;26.50;99.50;;;;;;5045618;28;19913;-72
2023/03/11 00:20:37;;;;;;;;;;;26.60;99.30;;;;;;5044445;28;19909;-72
2023/03/11 00:23:05;;;;;;;;;;;26.80;98.40;;;;;;5046610;28;19916;-73
2023/03/11 00:25:32;;;;;;;;;;;26.80;97.90;;;;;;5044321;28;19909;-69
2023/03/11 00:27:59;;;;;;;;;;;26.90;97.50;;;;;;5044397;28;19916;-69
2023/03/11 00:30:26;;;;;;;;;;;27.00;97.30;;;;;;5043816;28;20422;-70
2023/03/11 00:32:54;;;;;;;;;;;27.10;97.20;;;;;;5045271;28;20015;-68
2023/03/11 00:35:23;;;;;;;;;;;27.10;97.10;;;;;;5044547;28;19913;-70
2023/03/11 00:37:52;;;;;;;;;;;27.20;96.80;;;;;;5045135;28;19909;-74
2023/03/11 00:40:19;;;;;;;;;;;27.30;96.70;;;;;;5045067;28;19967;-74
2023/03/11 00:42:46;;;;;;;;;;;27.50;96.60;;;;;;5043819;28;19913;-71
2023/03/11 00:45:13;;;;;;;;;;;27.50;96.40;;;;;;5044858;28;19909;-69
2023/03/11 00:47:40;;;;;;;;;;;27.60;96.50;;;;;;5043362;28;19954;-68
2023/03/11 00:50:08;;;;;;;;;;;27.80;96.30;;;;;;5044534;28;19999;-71
2023/03/11 00:52:35;;;;;;;;;;;27.90;96.10;;;;;;5043451;28;20255;-68
2023/03/11 00:55:01;;;;;;;;;;;28.00;95.50;;;;;;5044441;28;20393;-69
2023/03/11 00:57:28;;;;;;;;;;;28.30;95.60;;;;;;5044294;28;19909;-69
2023/03/11 00:59:55;;;;;;;;;;;28.40;94.90;;;;;;5044123;28;19909;-72
2023/03/11 01:02:22;;;;;;;;;;;28.50;94.30;;;;;;5044360;28;19994;-76
2023/03/11 01:04:52;;;;;;;;;;;28.70;93.50;;;;;;5043119;28;19919;-70
2023/03/11 01:07:19;;;;;;;;;;;28.80;93.00;;;;;;5044027;28;19909;-75
2023/03/11 01:09:45;;;;;;;;;;;28.90;92.80;;;;;;5043400;28;19912;-73
2023/03/11 01:12:12;;;;;;;;;;;29.10;92.90;;;;;;5044691;28;19923;-68
2023/03/11 01:14:39;;;;;;;;;;;29.30;92.10;;;;;;5042590;28;20005;-70
2023/03/11 01:17:06;;;;;;;;;;;29.40;91.40;;;;;;5044127;28;19920;-74
2023/03/11 01:19:32;;;;;;;;;;;29.60;91.30;;;;;;5043477;28;20239;-74
2023/03/11 01:21:59;;;;;;;;;;;29.90;90.80;;;;;;5044480;28;19916;-68
2023/03/11 01:24:25;;;;;;;;;;;30.00;90.50;;;;;;5044164;28;19920;-74
2023/03/11 01:26:52;;;;;;;;;;;30.00;89.90;;;;;;5042592;28;20393;-73
2023/03/11 01:29:18;;;;;;;;;;;30.00;87.50;;;;;;5044118;28;19909;-70
2023/03/11 01:31:45;;;;;;;;;;;30.00;88.10;;;;;;5042557;28;20379;-68
2023/03/11 01:34:12;;;;;;;;;;;30.10;88.30;;;;;;5043825;28;19909;-70
2023/03/11 01:36:38;;;;;;;;;;;30.20;86.40;;;;;;5042447;28;19909;-68
2023/03/11 01:39:05;;;;;;;;;;;30.40;85.10;;;;;;5043955;28;19920;-69
2023/03/11 01:41:33;;;;;;;;;;;30.70;85.30;;;;;;5043627;28;19916;-67
2023/03/11 01:43:59;;;;;;;;;;;30.90;83.70;;;;;;5042813;28;20403;-67
2023/03/11 01:46:27;;;;;;;;;;;31.20;83.80;;;;;;5043515;28;19908;-71
2023/03/11 01:48:56;;;;;;;;;;;31.40;83.20;;;;;;5042599;28;20023;-69
2023/03/11 01:51:51;;;;;;;;;;;31.50;80.10;;;;;;5043919;28;20070;-70
2023/03/11 01:54:21;;;;;;;;;;;31.50;80.50;;;;;;5028650;28;19957;-70
2023/03/11 01:56:48;;;;;;;;;;;31.80;78.20;;;;;;5042509;28;19910;-72
2023/03/11 01:59:18;;;;;;;;;;;31.80;78.70;;;;;;5042886;28;20301;-73
2023/03/11 02:01:51;;;;;;;;;;;32.10;77.50;;;;;;5041816;28;20277;-73
2023/03/11 02:04:19;;;;;;;;;;;32.30;80.10;;;;;;5043543;28;19921;-73
2023/03/11 02:06:46;;;;;;;;;;;32.60;75.80;;;;;;5042141;28;20715;-69
2023/03/11 02:09:12;;;;;;;;;;;32.80;75.80;;;;;;5043418;28;19909;-68
2023/03/11 02:11:39;;;;;;;;;;;33.00;71.40;;;;;;5043491;28;19917;-69
2023/03/11 02:14:06;;;;;;;;;;;32.90;71.10;;;;;;5043102;28;19919;-68
2023/03/11 02:16:33;;;;;;;;;;;33.20;72.10;;;;;;5042716;28;19912;-74
2023/03/11 02:19:04;;;;;;;;;;;33.50;71.50;;;;;;5041985;28;19909;-74
2023/03/11 02:21:32;;;;;;;;;;;34.00;72.80;;;;;;5042849;28;19944;-70
2023/03/11 02:24:09;;;;;;;;;;;34.30;73.40;;;;;;5042200;28;19908;-72
2023/03/11 02:26:39;;;;;;;;;;;34.50;80.20;;;;;;5043513;28;19913;-72
2023/03/11 02:29:07;;;;;;;;;;;33.90;82.50;;;;;;5042264;28;19913;-69
2023/03/11 02:31:35;;;;;;;;;;;33.50;84.60;;;;;;5042622;28;19924;-70
2023/03/11 02:34:03;;;;;;;;;;;33.40;88.60;;;;;;5041278;28;19916;-69
2023/03/11 02:36:31;;;;;;;;;;;33.90;86.70;;;;;;5043288;28;19909;-69
2023/03/11 02:38:58;;;;;;;;;;;33.80;83.30;;;;;;5042006;28;19960;-68
2023/03/11 02:41:25;;;;;;;;;;;33.50;85.70;;;;;;5042999;28;20246;-69
2023/03/11 02:43:51;;;;;;;;;;;33.50;85.40;;;;;;5041570;28;19916;-70
2023/03/11 02:46:19;;;;;;;;;;;33.70;84.00;;;;;;5042978;28;19913;-69
2023/03/11 02:48:46;;;;;;;;;;;33.80;83.80;;;;;;5042165;28;19979;-75
2023/03/11 02:51:13;;;;;;;;;;;33.70;82.90;;;;;;5042439;28;20325;-70
2023/03/11 02:53:44;;;;;;;;;;;33.80;83.40;;;;;;5074293;28;19928;-69
2023/03/11 02:56:11;;;;;;;;;;;34.20;86.10;;;;;;5041789;28;20639;-74
2023/03/11 02:58:37;;;;;;;;;;;34.50;83.80;;;;;;5042076;28;19952;-69
2023/03/11 03:01:04;;;;;;;;;;;35.00;83.10;;;;;;5041218;28;19938;-71
2023/03/11 03:03:31;;;;;;;;;;;35.60;79.50;;;;;;5042962;28;20278;-72
2023/03/11 03:05:57;;;;;;;;;;;35.30;78.30;;;;;;5040827;28;19924;-68
2023/03/11 03:08:24;;;;;;;;;;;36.00;79.20;;;;;;5041291;28;19919;-68
2023/03/11 03:10:50;;;;;;;;;;;37.20;76.60;;;;;;5041700;28;19912;-67
2023/03/11 03:13:17;;;;;;;;;;;37.60;75.00;;;;;;5043104;28;20350;-67
2023/03/11 03:15:44;;;;;;;;;;;38.80;75.40;;;;;;5043982;28;20007;-68
2023/03/11 03:18:10;;;;;;;;;;;39.70;71.10;;;;;;5042959;28;19917;-74
2023/03/11 03:20:37;;;;;;;;;;;40.90;71.30;;;;;;5042818;28;19913;-70
2023/03/11 03:23:04;;;;;;;;;;;41.80;67.90;;;;;;5040930;28;20289;-69
2023/03/11 03:25:30;;;;;;;;;;;42.60;66.70;;;;;;5042458;28;20369;-68
2023/03/11 03:27:57;;;;;;;;;;;43.10;64.50;;;;;;5041120;28;19909;-69
2023/03/11 03:30:23;;;;;;;;;;;43.40;63.10;;;;;;5042736;28;19909;-73
2023/03/11 03:32:50;;;;;;;;;;;42.70;63.60;;;;;;5042270;28;19929;-68
2023/03/11 03:35:17;;;;;;;;;;;43.40;63.00;;;;;;5041740;28;19909;-68
2023/03/11 03:37:43;;;;;;;;;;;43.00;62.60;;;;;;5042247;28;19958;-75
2023/03/11 03:40:10;;;;;;;;;;;42.30;63.40;;;;;;5041163;28;20578;-76
2023/03/11 03:42:37;;;;;;;;;;;42.10;64.50;;;;;;5041535;28;20000;-70
2023/03/11 03:45:06;;;;;;;;;;;42.00;64.30;;;;;;5040689;28;19913;-73
2023/03/11 03:47:33;;;;;;;;;;;41.00;65.40;;;;;;5042175;28;19989;-74
2023/03/11 03:50:01;;;;;;;;;;;41.30;66.00;;;;;;5040253;28;19935;-76
2023/03/11 03:52:28;;;;;;;;;;;41.90;63.50;;;;;;5042206;28;20082;-70
2023/03/11 03:54:54;;;;;;;;;;;42.60;64.00;;;;;;5041843;28;19909;-70
2023/03/11 03:57:21;;;;;;;;;;;43.70;61.20;;;;;;5041699;28;19952;-76
2023/03/11 03:59:48;;;;;;;;;;;43.70;60.90;;;;;;5041880;28;19913;-76
2023/03/11 04:02:14;;;;;;;;;;;43.60;60.60;;;;;;5040815;28;19924;-67
2023/03/11 04:04:41;;;;;;;;;;;41.50;63.10;;;;;;5042550;28;19908;-75
2023/03/11 04:07:07;;;;;;;;;;;42.00;64.20;;;;;;5040804;28;20304;-78
2023/03/11 04:09:34;;;;;;;;;;;41.90;61.80;;;;;;5041866;28;19917;-76
2023/03/11 04:12:01;;;;;;;;;;;41.60;64.20;;;;;;5040626;28;19917;-74
2023/03/11 04:14:27;;;;;;;;;;;42.30;62.30;;;;;;5042447;28;19943;-71
2023/03/11 04:16:54;;;;;;;;;;;42.40;64.20;;;;;;5042338;28;19919;-76
2023/03/11 04:19:21;;;;;;;;;;;42.40;61.50;;;;;;5041721;28;19921;-75
2023/03/11 04:21:47;;;;;;;;;;;41.80;62.00;;;;;;5043889;28;19938;-75
2023/03/11 04:24:14;;;;;;;;;;;40.20;64.50;;;;;;5044281;28;19916;-70
2023/03/11 04:26:41;;;;;;;;;;;40.10;64.90;;;;;;5045675;28;19913;-78
2023/03/11 04:29:07;;;;;;;;;;;40.30;64.90;;;;;;5043943;28;19917;-76
2023/03/11 04:31:34;;;;;;;;;;;40.80;64.00;;;;;;5045046;28;19932;-71
2023/03/11 04:34:00;;;;;;;;;;;40.20;65.80;;;;;;5044606;28;19948;-71
2023/03/11 04:36:27;;;;;;;;;;;40.80;64.70;;;;;;5045027;28;19909;-69
2023/03/11 04:38:55;;;;;;;;;;;40.70;64.90;;;;;;5044685;28;19921;-66
2023/03/11 04:41:22;;;;;;;;;;;40.40;65.30;;;;;;5043561;28;19995;-69
2023/03/11 04:43:48;;;;;;;;;;;40.10;65.40;;;;;;5044711;28;19917;-68
2023/03/11 04:46:15;;;;;;;;;;;41.20;64.50;;;;;;5043543;28;19936;-74
2023/03/11 04:48:42;;;;;;;;;;;41.60;62.80;;;;;;5045062;28;20361;-75
2023/03/11 04:51:08;;;;;;;;;;;41.60;64.50;;;;;;5043408;28;19920;-75
2023/03/11 04:53:35;;;;;;;;;;;41.20;63.40;;;;;;5045273;28;19958;-70
2023/03/11 04:56:02;;;;;;;;;;;41.40;62.30;;;;;;5044128;28;19952;-74
2023/03/11 04:58:28;;;;;;;;;;;41.00;63.50;;;;;;5043982;28;19970;-70
2023/03/11 05:00:58;;;;;;;;;;;40.00;63.70;;;;;;5044613;28;19909;-71
2023/03/11 05:03:24;;;;;;;;;;;40.20;64.40;;;;;;5043449;28;19909;-67
2023/03/11 05:05:55;;;;;;;;;;;40.70;64.60;;;;;;5044579;28;19913;-68
2023/03/11 05:08:22;;;;;;;;;;;39.90;64.60;;;;;;5043860;28;19940;-69
2023/03/11 05:10:50;;;;;;;;;;;39.30;66.00;;;;;;5044888;28;19944;-67
2023/03/11 05:13:17;;;;;;;;;;;39.40;67.50;;;;;;5043278;28;19962;-69
2023/03/11 05:15:44;;;;;;;;;;;40.00;66.30;;;;;;5044098;28;20280;-68
2023/03/11 05:18:11;;;;;;;;;;;40.00;67.40;;;;;;5043167;28;19920;-75
2023/03/11 05:20:38;;;;;;;;;;;40.30;65.30;;;;;;5044913;28;19916;-74
2023/03/11 05:23:05;;;;;;;;;;;40.10;65.50;;;;;;5044508;28;19982;-70
2023/03/11 05:25:31;;;;;;;;;;;40.20;65.30;;;;;;5043280;28;19989;-75
2023/03/11 05:27:58;;;;;;;;;;;40.70;65.20;;;;;;5044008;28;19909;-70
2023/03/11 05:30:24;;;;;;;;;;;39.60;66.90;;;;;;5042985;28;19912;-74
2023/03/11 05:32:51;;;;;;;;;;;39.10;68.00;;;;;;5044456;28;19917;-67
2023/03/11 05:35:18;;;;;;;;;;;39.60;67.90;;;;;;5042153;28;19931;-70
2023/03/11 05:37:48;;;;;;;;;;;40.30;65.80;;;;;;5043935;28;19920;-69
2023/03/11 05:40:15;;;;;;;;;;;39.60;68.00;;;;;;5042563;28;20441;-70
2023/03/11 05:42:41;;;;;;;;;;;40.30;65.70;;;;;;5044189;28;19909;-68
2023/03/11 05:45:08;;;;;;;;;;;41.20;66.10;;;;;;5043981;28;19915;-68
2023/03/11 05:47:35;;;;;;;;;;;41.40;65.00;;;;;;5042774;28;19920;-71
2023/03/11 05:50:02;;;;;;;;;;;41.60;64.10;;;;;;5043507;28;19916;-69
2023/03/11 05:52:31;;;;;;;;;;;41.80;64.20;;;;;;5042321;28;20007;-68
2023/03/11 05:54:58;;;;;;;;;;;42.40;63.70;;;;;;5043919;28;20007;-70
2023/03/11 05:57:24;;;;;;;;;;;42.70;62.00;;;;;;5042440;28;19916;-68
2023/03/11 05:59:51;;;;;;;;;;;42.30;62.70;;;;;;5043711;28;19909;-69
2023/03/11 06:02:19;;;;;;;;;;;42.10;62.10;;;;;;5042557;28;19908;-69
2023/03/11 06:04:46;;;;;;;;;;;41.40;62.50;;;;;;5043683;28;19912;-73
2023/03/11 06:07:15;;;;;;;;;;;40.20;63.60;;;;;;5043715;28;19915;-73
2023/03/11 06:09:41;;;;;;;;;;;40.20;64.60;;;;;;5042577;28;20532;-68
2023/03/11 06:12:08;;;;;;;;;;;40.00;64.90;;;;;;5043286;28;20019;-69
2023/03/11 06:14:35;;;;;;;;;;;39.90;65.10;;;;;;5042596;28;19908;-68
2023/03/11 06:17:02;;;;;;;;;;;40.40;64.80;;;;;;5043513;28;19919;-69
2023/03/11 06:19:29;;;;;;;;;;;41.20;64.00;;;;;;5042230;28;20414;-67
2023/03/11 06:21:56;;;;;;;;;;;40.40;63.70;;;;;;5043785;28;19912;-69
2023/03/11 06:24:22;;;;;;;;;;;39.70;64.40;;;;;;5041661;28;20041;-68
2023/03/11 06:26:52;;;;;;;;;;;40.00;64.30;;;;;;5043643;28;19999;-74
2023/03/11 06:29:20;;;;;;;;;;;40.20;65.10;;;;;;5042933;28;19966;-69
2023/03/11 06:31:47;;;;;;;;;;;39.80;65.30;;;;;;5042676;28;20421;-75
2023/03/11 06:34:13;;;;;;;;;;;40.70;64.20;;;;;;5042684;28;19956;-78
2023/03/11 06:36:40;;;;;;;;;;;40.70;63.80;;;;;;5042112;28;19909;-76
2023/03/11 06:39:07;;;;;;;;;;;40.20;65.00;;;;;;5043181;28;19921;-76
2023/03/11 06:41:34;;;;;;;;;;;39.10;66.30;;;;;;5042136;28;19927;-70
2023/03/11 06:44:01;;;;;;;;;;;38.70;67.90;;;;;;5041826;28;19965;-76
2023/03/11 06:46:28;;;;;;;;;;;39.10;67.20;;;;;;5041917;28;20637;-76
2023/03/11 06:48:54;;;;;;;;;;;38.80;66.90;;;;;;5042401;28;19909;-70
2023/03/11 06:51:21;;;;;;;;;;;39.20;67.30;;;;;;5042493;28;19913;-73
2023/03/11 06:53:49;;;;;;;;;;;39.00;66.10;;;;;;5041331;28;20011;-74
2023/03/11 06:56:16;;;;;;;;;;;38.80;66.90;;;;;;5042482;28;19927;-73
2023/03/11 06:58:43;;;;;;;;;;;37.40;68.20;;;;;;5041685;28;19978;-71
2023/03/11 07:01:11;;;;;;;;;;;36.40;69.80;;;;;;5042736;28;19908;-70
2023/03/11 07:03:38;;;;;;;;;;;35.10;71.90;;;;;;5041610;28;20011;-68
2023/03/11 07:06:08;;;;;;;;;;;34.80;74.30;;;;;;5042253;28;19923;-77
2023/03/11 07:08:35;;;;;;;;;;;34.90;74.10;;;;;;5042084;28;19991;-73
2023/03/11 07:11:03;;;;;;;;;;;34.90;73.10;;;;;;5041660;28;19909;-72
2023/03/11 07:13:30;;;;;;;;;;;34.70;73.60;;;;;;5041444;28;20784;-75
2023/03/11 07:16:04;;;;;;;;;;;34.10;74.70;;;;;;5041441;28;19920;-69
2023/03/11 07:18:31;;;;;;;;;;;33.70;76.00;;;;;;5041824;28;19916;-78
2023/03/11 07:20:57;;;;;;;;;;;32.70;77.00;;;;;;5041959;28;19959;-68
2023/03/11 07:23:24;;;;;;;;;;;31.70;79.70;;;;;;5041808;28;19913;-74
2023/03/11 07:25:51;;;;;;;;;;;30.80;81.80;;;;;;5041037;28;20008;-68
2023/03/11 07:28:18;;;;;;;;;;;30.00;84.10;;;;;;5042060;28;20373;-77
2023/03/11 07:30:45;;;;;;;;;;;29.50;85.10;;;;;;5041703;28;20365;-73
2023/03/11 07:33:12;;;;;;;;;;;29.00;87.10;;;;;;5041935;28;19956;-68
2023/03/11 07:35:38;;;;;;;;;;;28.90;87.90;;;;;;5040166;28;19991;-76
2023/03/11 07:38:05;;;;;;;;;;;28.70;88.50;;;;;;5041372;28;19909;-68
2023/03/11 07:40:32;;;;;;;;;;;28.50;89.20;;;;;;5041963;28;19977;-72
2023/03/11 07:42:58;;;;;;;;;;;28.30;89.70;;;;;;5041627;28;19909;-75
2023/03/11 07:45:25;;;;;;;;;;;28.10;90.30;;;;;;5041476;28;19935;-68
2023/03/11 07:47:52;;;;;;;;;;;27.90;90.50;;;;;;5041055;28;19940;-69
2023/03/11 07:50:21;;;;;;;;;;;27.90;90.70;;;;;;5042101;28;19913;-72
2023/03/11 07:52:47;;;;;;;;;;;27.80;90.90;;;;;;5041697;28;19924;-75
2023/03/11 07:55:14;;;;;;;;;;;27.70;91.20;;;;;;5041869;28;20480;-73
2023/03/11 07:57:41;;;;;;;;;;;27.60;91.30;;;;;;5044374;28;19919;-70
2023/03/11 08:00:09;;;;;;;;;;;27.60;91.40;;;;;;5045250;28;19909;-73
2023/03/11 08:02:35;;;;;;;;;;;27.60;91.40;;;;;;5045823;28;21070;-67
2023/03/11 08:05:02;;;;;;;;;;;27.50;91.70;;;;;;5044668;28;19908;-68
2023/03/11 08:07:31;;;;;;;;;;;27.50;91.60;;;;;;5045913;28;20281;-67
2023/03/11 08:09:57;;;;;;;;;;;27.50;91.70;;;;;;5044101;28;19956;-72
2023/03/11 08:12:24;;;;;;;;;;;27.50;91.90;;;;;;5045208;28;19967;-71
2023/03/11 08:14:51;;;;;;;;;;;27.50;91.90;;;;;;5045215;28;20366;-67
2023/03/11 08:17:18;;;;;;;;;;;27.50;92.00;;;;;;5045182;28;19909;-70
2023/03/11 08:19:45;;;;;;;;;;;27.50;92.10;;;;;;5044971;28;19909;-66
2023/03/11 08:22:11;;;;;;;;;;;27.50;92.20;;;;;;5044982;28;19912;-76
2023/03/11 08:24:38;;;;;;;;;;;27.50;92.10;;;;;;5045155;28;19909;-76
2023/03/11 08:27:05;;;;;;;;;;;27.50;92.30;;;;;;5044786;28;20263;-77
2023/03/11 08:29:31;;;;;;;;;;;27.40;92.40;;;;;;5045180;28;19909;-67
2023/03/11 08:31:58;;;;;;;;;;;27.40;92.40;;;;;;5043669;28;20008;-69
2023/03/11 08:34:26;;;;;;;;;;;27.40;92.40;;;;;;5044895;28;19920;-73
2023/03/11 08:36:53;;;;;;;;;;;27.40;92.50;;;;;;5044731;28;20054;-73
2023/03/11 08:39:19;;;;;;;;;;;27.40;92.70;;;;;;5044839;28;19920;-77
2023/03/11 08:41:46;;;;;;;;;;;27.30;92.90;;;;;;5044855;28;20278;-73
2023/03/11 08:44:12;;;;;;;;;;;27.30;93.10;;;;;;5044986;28;19912;-72
2023/03/11 08:46:39;;;;;;;;;;;27.30;93.00;;;;;;5044595;28;19909;-71
2023/03/11 08:49:06;;;;;;;;;;;27.20;93.00;;;;;;5043844;28;19924;-73
2023/03/11 08:51:33;;;;;;;;;;;27.20;93.30;;;;;;5043328;28;20022;-77
2023/03/11 08:54:00;;;;;;;;;;;27.10;93.20;;;;;;5043617;28;20062;-75
2023/03/11 08:56:27;;;;;;;;;;;27.20;93.20;;;;;;5043951;28;19913;-76
2023/03/11 08:58:54;;;;;;;;;;;27.20;93.30;;;;;;5044388;28;19923;-73
2023/03/11 09:01:21;;;;;;;;;;;27.10;92.80;;;;;;5042956;28;19913;-70
2023/03/11 09:03:48;;;;;;;;;;;27.00;92.80;;;;;;5026664;28;19913;-68
2023/03/11 09:06:16;;;;;;;;;;;27.00;92.90;;;;;;5025763;28;19913;-73
2023/03/11 09:08:43;;;;;;;;;;;26.90;92.70;;;;;;5024658;28;19966;-69
2023/03/11 09:11:12;;;;;;;;;;;26.90;92.40;;;;;;5035848;28;19909;-74
2023/03/11 09:13:40;;;;;;;;;;;26.90;92.50;;;;;;5042843;28;20381;-75
2023/03/11 09:16:08;;;;;;;;;;;26.90;92.30;;;;;;5045517;28;19913;-68
2023/03/11 09:18:35;;;;;;;;;;;26.80;92.20;;;;;;5028951;28;19996;-72
2023/03/11 09:21:01;;;;;;;;;;;26.90;92.40;;;;;;5031577;28;20008;-75
2023/03/11 09:23:28;;;;;;;;;;;26.80;92.40;;;;;;5030940;28;20362;-77
2023/03/11 09:25:54;;;;;;;;;;;26.80;92.50;;;;;;5030985;28;19939;-78
2023/03/11 09:28:21;;;;;;;;;;;26.80;92.60;;;;;;5037995;28;19913;-77
2023/03/11 09:30:48;;;;;;;;;;;26.80;92.60;;;;;;5044478;28;19908;-77
2023/03/11 09:33:14;;;;;;;;;;;26.80;92.60;;;;;;5044255;28;20011;-77
2023/03/11 09:35:41;;;;;;;;;;;26.80;92.60;;;;;;5043278;28;20357;-77
2023/03/11 09:38:08;;;;;;;;;;;26.70;92.70;;;;;;5043279;28;19967;-76
2023/03/11 09:40:53;;;;;;;;;;;26.70;92.90;;;;;;5043245;28;19923;-72
2023/03/11 09:43:24;;;;;;;;;;;26.70;93.20;;;;;;5044318;28;20004;-77
2023/03/11 09:46:06;;;;;;;;;;;26.60;93.40;;;;;;5043268;28;19952;-69
2023/03/11 09:48:39;;;;;;;;;;;26.60;93.50;;;;;;5043445;28;20010;-77
2023/03/11 09:51:19;;;;;;;;;;;26.60;93.60;;;;;;5044320;28;20444;-68
2023/03/11 09:53:49;;;;;;;;;;;26.60;93.70;;;;;;5042894;28;19954;-76
2023/03/11 09:56:20;;;;;;;;;;;26.60;93.80;;;;;;5042922;28;19915;-77
2023/03/11 09:58:49;;;;;;;;;;;26.50;94.00;;;;;;5043307;28;19971;-75
2023/03/11 10:01:19;;;;;;;;;;;26.50;94.10;;;;;;5052901;28;19920;-67
2023/03/11 10:03:46;;;;;;;;;;;26.50;94.20;;;;;;5042248;28;20385;-70
2023/03/11 10:06:16;;;;;;;;;;;26.50;94.10;;;;;;5042730;28;19913;-76
2023/03/11 10:08:43;;;;;;;;;;;26.50;94.20;;;;;;5043560;28;19991;-70
2023/03/11 10:11:15;;;;;;;;;;;26.60;94.30;;;;;;5043613;28;19909;-75
2023/03/11 10:13:53;;;;;;;;;;;26.60;94.50;;;;;;5028998;28;19931;-69
2023/03/11 10:16:24;;;;;;;;;;;26.60;94.30;;;;;;5038473;28;19909;-69
2023/03/11 10:18:59;;;;;;;;;;;26.70;94.60;;;;;;5042070;28;19913;-77
2023/03/11 10:21:33;;;;;;;;;;;26.70;94.50;;;;;;5043901;28;19921;-69
2023/03/11 10:24:00;;;;;;;;;;;26.80;94.70;;;;;;5041993;28;19919;-70
2023/03/11 10:26:31;;;;;;;;;;;26.70;94.70;;;;;;5042761;28;19952;-68
2023/03/11 10:29:04;;;;;;;;;;;26.70;94.80;;;;;;5042050;28;20316;-77
2023/03/11 10:31:37;;;;;;;;;;;26.80;94.80;;;;;;5041417;28;19921;-70
2023/03/11 10:34:08;;;;;;;;;;;26.70;95.10;;;;;;5040581;28;19924;-75
2023/03/11 10:36:39;;;;;;;;;;;26.70;95.20;;;;;;5042691;28;19954;-77
2023/03/11 10:39:05;;;;;;;;;;;26.70;95.30;;;;;;5042058;28;19921;-70
2023/03/11 10:41:51;;;;;;;;;;;26.70;95.60;;;;;;5042895;28;20057;-75
2023/03/11 10:44:20;;;;;;;;;;;26.70;95.80;;;;;;5043055;28;19913;-81
2023/03/11 10:46:47;;;;;;;;;;;26.60;96.00;;;;;;5041976;28;19986;-70
2023/03/11 10:49:14;;;;;;;;;;;26.60;96.30;;;;;;5029856;28;19966;-75
2023/03/11 10:51:43;;;;;;;;;;;26.60;96.40;;;;;;5054809;28;19916;-81
2023/03/11 10:54:19;;;;;;;;;;;26.60;96.70;;;;;;5030747;28;20388;-74
2023/03/11 10:56:49;;;;;;;;;;;26.50;96.90;;;;;;5041612;28;19912;-69
2023/03/11 10:59:24;;;;;;;;;;;26.50;97.30;;;;;;5035597;28;20377;-76
2023/03/11 11:01:57;;;;;;;;;;;26.40;97.50;;;;;;5042029;28;19951;-75
2023/03/11 11:04:38;;;;;;;;;;;26.40;97.70;;;;;;5042522;28;20022;-72
2023/03/11 11:07:23;;;;;;;;;;;26.40;97.90;;;;;;5044864;28;19913;-77
2023/03/11 11:10:09;;;;;;;;;;;26.40;98.10;;;;;;5043903;28;19959;-76
2023/03/11 11:12:36;;;;;;;;;;;26.30;98.20;;;;;;5043170;28;20015;-76
2023/03/11 11:15:02;;;;;;;;;;;26.20;98.30;;;;;;5028595;28;19913;-74
2023/03/11 11:17:33;;;;;;;;;;;26.20;98.30;;;;;;5029164;28;19924;-76
2023/03/11 11:20:11;;;;;;;;;;;26.20;98.40;;;;;;5032264;28;20019;-78
2023/03/11 11:22:46;;;;;;;;;;;26.10;98.50;;;;;;5027569;28;20416;-76
2023/03/11 11:25:25;;;;;;;;;;;26.10;98.70;;;;;;5032402;28;19970;-77
2023/03/11 11:28:00;;;;;;;;;;;26.10;98.90;;;;;;5021724;28;19936;-76
2023/03/11 11:30:28;;;;;;;;;;;26.10;99.00;;;;;;5029036;28;20366;-75
2023/03/11 11:32:54;;;;;;;;;;;26.20;99.10;;;;;;5040787;28;20337;-76
2023/03/11 11:35:23;;;;;;;;;;;26.10;99.00;;;;;;5036908;28;19920;-69
2023/03/11 11:37:51;;;;;;;;;;;26.00;99.20;;;;;;5022408;28;19935;-67
2023/03/11 11:40:31;;;;;;;;;;;26.00;99.50;;;;;;5023296;28;19925;-68
2023/03/11 11:43:00;;;;;;;;;;;26.00;99.60;;;;;;5030054;28;19927;-69
2023/03/11 11:45:44;;;;;;;;;;;26.00;99.50;;;;;;5032672;28;20001;-69
2023/03/11 11:48:21;;;;;;;;;;;26.00;99.40;;;;;;5030329;28;20356;-67
2023/03/11 11:50:51;;;;;;;;;;;25.90;99.50;;;;;;5021684;28;19913;-77
2023/03/11 11:53:31;;;;;;;;;;;25.80;99.60;;;;;;5024501;28;19991;-70
2023/03/11 11:55:58;;;;;;;;;;;25.80;99.70;;;;;;5023983;28;19986;-70
2023/03/11 11:58:25;;;;;;;;;;;25.80;99.70;;;;;;5031102;28;19956;-77
2023/03/11 12:01:03;;;;;;;;;;;25.80;99.90;;;;;;5021177;28;20623;-77
2023/03/11 12:03:29;;;;;;;;;;;25.70;99.70;;;;;;5026000;28;20345;-74
2023/03/11 12:05:56;;;;;;;;;;;25.70;99.70;;;;;;5036982;28;19963;-68
2023/03/11 12:08:33;;;;;;;;;;;25.70;99.80;;;;;;5039477;28;19962;-67
2023/03/11 12:11:02;;;;;;;;;;;25.70;99.90;;;;;;5021444;28;20004;-68
2023/03/11 12:13:32;;;;;;;;;;;25.70;99.90;;;;;;5032564;28;19921;-67
2023/03/11 12:16:01;;;;;;;;;;;25.70;99.90;;;;;;5041946;28;20366;-68
2023/03/11 12:18:54;;;;;;;;;;;25.80;99.90;;;;;;5041440;28;19908;-69
2023/03/11 12:21:45;;;;;;;;;;;25.80;99.90;;;;;;5038994;28;19920;-68
2023/03/11 12:24:24;;;;;;;;;;;25.80;99.90;;;;;;5039934;28;20316;-69
2023/03/11 12:26:52;;;;;;;;;;;25.80;99.90;;;;;;5041502;28;19916;-67
2023/03/11 12:29:24;;;;;;;;;;;25.80;99.90;;;;;;5029679;28;19913;-67
2023/03/11 12:31:51;;;;;;;;;;;25.80;99.90;;;;;;5026716;28;20027;-67
2023/03/11 12:34:20;;;;;;;;;;;25.70;99.90;;;;;;5048930;28;19909;-67
2023/03/11 12:36:47;;;;;;;;;;;25.70;99.90;;;;;;5039155;28;19913;-77
2023/03/11 12:39:40;;;;;;;;;;;25.60;99.90;;;;;;5040186;28;19920;-78
2023/03/11 12:42:12;;;;;;;;;;;25.50;99.90;;;;;;5042178;28;19920;-73
2023/03/11 12:44:40;;;;;;;;;;;25.50;99.90;;;;;;5045257;28;19962;-77
2023/03/11 12:47:12;;;;;;;;;;;25.40;99.90;;;;;;5044675;28;20423;-67
2023/03/11 12:49:40;;;;;;;;;;;25.40;99.90;;;;;;5045454;28;20102;-76
2023/03/11 12:52:12;;;;;;;;;;;25.30;99.90;;;;;;5063749;28;20329;-67
2023/03/11 12:54:43;;;;;;;;;;;25.20;99.90;;;;;;5064878;28;20342;-67
2023/03/11 12:57:16;;;;;;;;;;;25.20;99.90;;;;;;5035252;28;19964;-68
2023/03/11 13:00:07;;;;;;;;;;;25.20;99.90;;;;;;5044495;28;19913;-67
2023/03/11 13:02:54;;;;;;;;;;;25.10;99.90;;;;;;5042703;28;19943;-66
2023/03/11 13:05:27;;;;;;;;;;;25.00;99.90;;;;;;5043086;28;19935;-67
2023/03/11 13:07:56;;;;;;;;;;;25.00;99.90;;;;;;5045820;28;19920;-68
2023/03/11 13:10:26;;;;;;;;;;;25.00;99.90;;;;;;5023384;28;19949;-69
2023/03/11 13:12:52;;;;;;;;;;;25.00;99.90;;;;;;5043766;28;20369;-77
2023/03/11 13:15:19;;;;;;;;;;;25.00;99.90;;;;;;5043496;28;19919;-77
2023/03/11 13:17:58;;;;;;;;;;;25.00;99.90;;;;;;5044321;28;20365;-68
2023/03/11 13:20:42;;;;;;;;;;;25.00;99.90;;;;;;5042869;28;19959;-67
2023/03/11 13:23:12;;;;;;;;;;;25.00;99.90;;;;;;5044262;28;19999;-68
2023/03/11 13:25:57;;;;;;;;;;;25.00;99.90;;;;;;5044376;28;20000;-71
2023/03/11 13:28:41;;;;;;;;;;;24.90;99.90;;;;;;5042646;28;20340;-70
2023/03/11 13:31:14;;;;;;;;;;;25.00;99.90;;;;;;5045743;28;19939;-68
2023/03/11 13:33:54;;;;;;;;;;;24.90;99.90;;;;;;5043819;28;19928;-68
2023/03/11 13:36:21;;;;;;;;;;;25.00;99.90;;;;;;5042367;28;20011;-68
2023/03/11 13:39:07;;;;;;;;;;;24.90;99.90;;;;;;5036284;28;19917;-69
2023/03/11 13:41:40;;;;;;;;;;;24.90;99.90;;;;;;5042917;28;19921;-75
2023/03/11 13:44:29;;;;;;;;;;;24.90;99.90;;;;;;5044119;28;19940;-67
2023/03/11 13:47:02;;;;;;;;;;;24.90;99.90;;;;;;5043293;28;19912;-67
2023/03/11 13:49:39;;;;;;;;;;;24.90;99.90;;;;;;5042230;28;19913;-67
2023/03/11 13:52:08;;;;;;;;;;;24.90;99.90;;;;;;5043862;28;20327;-68
2023/03/11 13:54:34;;;;;;;;;;;24.90;99.90;;;;;;5041478;28;19920;-70
2023/03/11 13:57:02;;;;;;;;;;;24.90;99.90;;;;;;5043910;28;19916;-68
2023/03/11 13:59:28;;;;;;;;;;;24.90;99.90;;;;;;5042951;28;19913;-68
2023/03/11 14:02:01;;;;;;;;;;;24.90;99.90;;;;;;5043602;28;19909;-67
2023/03/11 14:04:31;;;;;;;;;;;24.90;99.90;;;;;;5034696;28;19909;-67
2023/03/11 14:06:58;;;;;;;;;;;24.90;99.90;;;;;;5024623;28;19914;-68
2023/03/11 14:09:26;;;;;;;;;;;24.90;99.90;;;;;;5042259;28;20058;-71
2023/03/11 14:11:55;;;;;;;;;;;24.90;99.90;;;;;;5043377;28;19917;-73
2023/03/11 14:14:28;;;;;;;;;;;24.80;99.90;;;;;;5029751;28;19913;-68
2023/03/11 14:16:55;;;;;;;;;;;24.70;99.90;;;;;;5023135;28;20448;-68
2023/03/11 14:19:22;;;;;;;;;;;24.60;99.90;;;;;;5023018;28;20316;-67
2023/03/11 14:21:50;;;;;;;;;;;24.50;99.90;;;;;;5025970;28;20255;-67
2023/03/11 14:24:18;;;;;;;;;;;24.50;99.90;;;;;;5042841;28;19919;-67
2023/03/11 14:26:47;;;;;;;;;;;24.50;99.90;;;;;;5042238;28;19951;-71